Time;durP1;ratioP1;P1;durP2;ratioP2;P2;SDS_P1;SDS_P2;PMS_P1;PMS_P2;Temp;Humidity;BMP_temperature;BMP_pressure;BME280_temperature;BME280_humidity;BME280_pressure;Samples;Min_cycle;Max_cycle;Signal;HPM_P1;HPM_P2
2023/04/19 00:00:40;;;;;;;21.80;13.35;;;11.70;99.90;;;;;;4141714;28;20559;-63
2023/04/19 00:02:42;;;;;;;18.02;11.50;;;11.60;99.90;;;;;;4134743;28;20042;-63
2023/04/19 00:04:43;;;;;;;17.20;12.13;;;11.60;99.90;;;;;;4142894;28;20049;-63
2023/04/19 00:06:44;;;;;;;21.40;13.07;;;11.60;99.90;;;;;;4144597;28;20391;-64
2023/04/19 00:08:45;;;;;;;19.05;11.93;;;11.60;99.90;;;;;;4140468;28;20032;-64
2023/04/19 00:10:46;;;;;;;18.90;12.38;;;11.60;99.90;;;;;;4141607;28;20062;-63
2023/04/19 00:12:46;;;;;;;24.25;13.15;;;11.60;99.90;;;;;;4143258;28;20164;-64
2023/04/19 00:14:47;;;;;;;16.13;11.80;;;11.60;99.90;;;;;;4141589;28;20040;-63
2023/04/19 00:16:47;;;;;;;19.13;12.32;;;11.60;99.90;;;;;;4137209;28;20030;-63
2023/04/19 00:18:48;;;;;;;18.75;11.88;;;11.60;99.90;;;;;;4139667;28;20485;-63
2023/04/19 00:20:49;;;;;;;17.45;12.45;;;11.50;99.90;;;;;;4134271;28;20050;-63
2023/04/19 00:22:49;;;;;;;19.52;12.65;;;11.60;99.90;;;;;;4143678;28;20037;-64
2023/04/19 00:24:50;;;;;;;21.38;12.77;;;11.50;99.90;;;;;;4139777;28;20264;-63
2023/04/19 00:26:50;;;;;;;18.88;12.13;;;11.50;99.90;;;;;;4136293;28;20057;-63
2023/04/19 00:28:51;;;;;;;22.67;14.10;;;11.50;99.90;;;;;;4145743;28;20033;-64
2023/04/19 00:30:51;;;;;;;17.52;12.50;;;11.50;99.90;;;;;;4140335;28;20030;-63
2023/04/19 00:32:52;;;;;;;23.45;12.77;;;11.40;99.90;;;;;;4140275;28;20053;-63
2023/04/19 00:34:53;;;;;;;22.55;11.50;;;11.40;99.90;;;;;;4136602;28;20452;-64
2023/04/19 00:36:53;;;;;;;23.15;12.77;;;11.50;99.90;;;;;;4138439;28;20039;-63
2023/04/19 00:38:54;;;;;;;21.50;13.13;;;11.40;99.90;;;;;;4143114;28;20049;-63
2023/04/19 00:40:54;;;;;;;19.48;12.73;;;11.50;99.90;;;;;;4140001;28;20468;-63
2023/04/19 00:42:55;;;;;;;19.33;12.38;;;11.50;99.90;;;;;;4145273;28;20046;-64
2023/04/19 00:44:55;;;;;;;18.85;12.80;;;11.50;99.90;;;;;;4140246;28;20440;-63
2023/04/19 00:46:56;;;;;;;21.77;14.20;;;11.40;99.90;;;;;;4140223;28;20373;-63
2023/04/19 00:48:58;;;;;;;23.42;13.88;;;11.50;99.90;;;;;;4136554;28;20392;-64
2023/04/19 00:50:59;;;;;;;19.00;12.75;;;11.50;99.90;;;;;;4138157;28;20045;-63
2023/04/19 00:52:59;;;;;;;18.48;13.15;;;11.50;99.90;;;;;;4139713;28;20393;-63
2023/04/19 00:55:00;;;;;;;20.30;13.70;;;11.50;99.90;;;;;;4145587;28;20025;-63
2023/04/19 00:57:01;;;;;;;16.88;12.63;;;11.50;99.90;;;;;;4141297;28;20054;-63
2023/04/19 00:59:02;;;;;;;19.15;12.38;;;11.60;99.90;;;;;;4147379;28;20034;-63
2023/04/19 01:01:03;;;;;;;18.25;12.57;;;11.60;99.90;;;;;;4145056;28;20393;-63
2023/04/19 01:03:04;;;;;;;17.38;11.88;;;11.60;99.90;;;;;;4141485;28;20053;-63
2023/04/19 01:05:04;;;;;;;19.25;12.40;;;11.60;99.90;;;;;;4143315;28;20477;-64
2023/04/19 01:07:05;;;;;;;15.70;11.15;;;11.60;99.90;;;;;;4131656;28;20030;-63
2023/04/19 01:09:06;;;;;;;18.00;12.38;;;11.70;99.90;;;;;;4140453;28;20030;-63
2023/04/19 01:11:07;;;;;;;19.50;12.35;;;11.60;99.90;;;;;;4142697;28;20026;-63
2023/04/19 01:13:07;;;;;;;17.38;11.88;;;11.60;99.90;;;;;;4144852;28;20030;-63
2023/04/19 01:15:08;;;;;;;16.02;10.77;;;11.60;99.90;;;;;;4142751;28;20037;-64
2023/04/19 01:17:12;;;;;;;17.35;11.60;;;11.70;99.90;;;;;;4134263;28;20117;-63
2023/04/19 01:19:12;;;;;;;18.73;11.80;;;11.70;99.90;;;;;;4135189;28;20031;-62
2023/04/19 01:21:13;;;;;;;18.02;11.55;;;11.80;99.90;;;;;;4138900;28;20056;-63
2023/04/19 01:23:14;;;;;;;20.25;13.18;;;11.70;99.90;;;;;;4136782;28;20038;-63
2023/04/19 01:25:14;;;;;;;18.48;12.43;;;11.70;99.90;;;;;;4134807;28;20091;-63
2023/04/19 01:27:16;;;;;;;18.58;12.23;;;11.70;99.90;;;;;;4139098;28;20547;-64
2023/04/19 01:29:17;;;;;;;18.38;12.18;;;11.70;99.90;;;;;;4134458;28;20022;-63
2023/04/19 01:31:18;;;;;;;17.73;13.00;;;11.70;99.90;;;;;;4136187;28;20512;-63
2023/04/19 01:33:19;;;;;;;18.52;11.38;;;11.70;99.90;;;;;;4140520;28;20050;-63
2023/04/19 01:35:20;;;;;;;18.95;12.57;;;11.70;99.90;;;;;;4135869;28;20033;-63
2023/04/19 01:37:20;;;;;;;16.95;11.27;;;11.70;99.90;;;;;;4139055;28;20022;-64
2023/04/19 01:39:21;;;;;;;19.17;13.02;;;11.70;99.90;;;;;;4139226;28;20133;-63
2023/04/19 01:41:25;;;;;;;17.00;11.50;;;11.70;99.90;;;;;;4132787;28;20110;-63
2023/04/19 01:43:26;;;;;;;20.55;12.02;;;11.70;99.90;;;;;;4136492;28;20040;-63
2023/04/19 01:45:26;;;;;;;19.85;12.32;;;11.70;99.90;;;;;;4136162;28;20038;-63
2023/04/19 01:47:27;;;;;;;23.48;12.50;;;11.70;99.90;;;;;;4136494;28;20030;-63
2023/04/19 01:49:27;;;;;;;21.13;12.10;;;11.70;99.90;;;;;;4140295;28;20034;-64
2023/04/19 01:51:28;;;;;;;20.27;12.25;;;11.60;99.90;;;;;;4139190;28;20084;-63
2023/04/19 01:53:29;;;;;;;19.73;12.07;;;11.60;99.90;;;;;;4132660;28;20034;-64
2023/04/19 01:55:29;;;;;;;19.70;12.50;;;11.60;99.90;;;;;;4137573;28;20084;-64
2023/04/19 01:57:30;;;;;;;18.60;12.93;;;11.70;99.90;;;;;;4138582;28;20026;-63
2023/04/19 01:59:30;;;;;;;17.60;11.65;;;11.70;99.90;;;;;;4141216;28;20041;-63
2023/04/19 02:01:31;;;;;;;19.42;11.45;;;11.70;99.90;;;;;;4143598;28;20030;-64
2023/04/19 02:03:31;;;;;;;18.05;11.80;;;11.70;99.90;;;;;;4139083;28;20038;-63
2023/04/19 02:05:32;;;;;;;18.70;11.63;;;11.70;99.90;;;;;;4138597;28;20058;-63
2023/04/19 02:07:33;;;;;;;19.13;11.32;;;11.70;99.90;;;;;;4132815;28;20037;-63
2023/04/19 02:09:35;;;;;;;18.48;12.30;;;11.70;99.90;;;;;;4140514;28;20113;-63
2023/04/19 02:11:36;;;;;;;16.17;11.18;;;11.80;99.90;;;;;;4134027;28;20414;-63
2023/04/19 02:13:36;;;;;;;17.13;11.75;;;11.70;99.90;;;;;;4143454;28;20033;-63
2023/04/19 02:15:37;;;;;;;16.65;11.48;;;11.60;99.90;;;;;;4142101;28;20076;-63
2023/04/19 02:17:39;;;;;;;19.08;11.52;;;11.60;99.90;;;;;;4139991;28;20030;-63
2023/04/19 02:19:39;;;;;;;17.57;11.47;;;11.70;99.90;;;;;;4134284;28;20034;-62
2023/04/19 02:21:40;;;;;;;18.88;12.43;;;11.60;99.90;;;;;;4143825;28;20392;-63
2023/04/19 02:23:40;;;;;;;20.63;11.45;;;11.60;99.90;;;;;;4139098;28;20401;-63
2023/04/19 02:25:41;;;;;;;21.05;11.57;;;11.60;99.90;;;;;;4142509;28;20048;-62
2023/04/19 02:27:42;;;;;;;17.65;10.77;;;11.60;99.90;;;;;;4138400;28;20037;-63
2023/04/19 02:29:43;;;;;;;20.00;11.32;;;11.60;99.90;;;;;;4138632;28;20128;-63
2023/04/19 02:31:45;;;;;;;17.52;11.60;;;11.60;99.90;;;;;;4134455;28;20121;-63
2023/04/19 02:33:45;;;;;;;20.23;11.63;;;11.50;99.90;;;;;;4132633;28;20038;-65
2023/04/19 02:35:46;;;;;;;16.88;10.77;;;11.50;99.90;;;;;;4137937;28;20280;-64
2023/04/19 02:37:46;;;;;;;19.33;10.88;;;11.50;99.90;;;;;;4138137;28;20038;-63
2023/04/19 02:39:47;;;;;;;15.07;9.77;;;11.60;99.90;;;;;;4134709;28;20034;-63
2023/04/19 02:41:48;;;;;;;20.80;11.38;;;11.50;99.90;;;;;;4143480;28;20026;-63
2023/04/19 02:43:49;;;;;;;15.25;9.50;;;11.50;99.90;;;;;;4135504;28;20511;-63
2023/04/19 02:45:50;;;;;;;14.88;9.32;;;11.50;99.90;;;;;;4137143;28;20030;-63
2023/04/19 02:47:50;;;;;;;15.45;9.38;;;11.50;99.90;;;;;;4138377;28;20037;-63
2023/04/19 02:49:51;;;;;;;14.98;9.90;;;11.50;99.90;;;;;;4139256;28;20054;-63
2023/04/19 02:51:51;;;;;;;17.15;9.57;;;11.50;99.90;;;;;;4141444;28;20026;-62
2023/04/19 02:53:52;;;;;;;15.60;9.45;;;11.40;99.90;;;;;;4144043;28;20030;-63
2023/04/19 02:55:53;;;;;;;14.35;9.55;;;11.50;99.90;;;;;;4136782;28;20497;-62
2023/04/19 02:57:53;;;;;;;11.80;8.27;;;11.40;99.90;;;;;;4139059;28;20122;-63
2023/04/19 02:59:54;;;;;;;14.55;9.10;;;11.40;99.90;;;;;;4140669;28;20034;-63
2023/04/19 03:01:54;;;;;;;12.50;8.43;;;11.40;99.90;;;;;;4138197;28;20480;-64
2023/04/19 03:03:55;;;;;;;11.85;8.32;;;11.40;99.90;;;;;;4138936;28;21920;-64
2023/04/19 03:05:56;;;;;;;13.35;9.30;;;11.30;99.90;;;;;;4143397;28;20128;-63
2023/04/19 03:07:57;;;;;;;13.45;8.85;;;11.20;99.90;;;;;;4143849;28;20030;-63
2023/04/19 03:09:58;;;;;;;13.77;9.10;;;11.10;99.90;;;;;;4139089;28;20157;-62
2023/04/19 03:11:58;;;;;;;11.68;8.05;;;11.10;99.90;;;;;;4138391;28;20379;-63
2023/04/19 03:13:59;;;;;;;11.30;7.78;;;11.20;99.90;;;;;;4135617;28;20053;-63
2023/04/19 03:16:00;;;;;;;12.98;8.65;;;11.20;99.90;;;;;;4135686;28;20030;-63
2023/04/19 03:18:00;;;;;;;12.23;8.38;;;11.20;99.90;;;;;;4137791;28;20412;-63
2023/04/19 03:20:01;;;;;;;10.98;7.50;;;11.30;99.90;;;;;;4138334;28;20041;-63
2023/04/19 03:22:02;;;;;;;10.73;7.57;;;11.30;99.90;;;;;;4138618;28;20038;-62
2023/04/19 03:24:02;;;;;;;10.98;7.55;;;11.40;99.90;;;;;;4143553;28;20508;-63
2023/04/19 03:26:03;;;;;;;12.23;8.18;;;11.40;99.90;;;;;;4141262;28;20429;-63
2023/04/19 03:28:04;;;;;;;11.77;7.18;;;11.40;99.90;;;;;;4140392;28;20033;-63
2023/04/19 03:30:07;;;;;;;10.80;7.55;;;11.50;99.90;;;;;;4138819;28;20034;-64
2023/04/19 03:32:08;;;;;;;11.93;8.23;;;11.60;99.90;;;;;;4143125;28;20395;-63
2023/04/19 03:34:08;;;;;;;11.70;7.68;;;11.60;99.90;;;;;;4139841;28;20050;-63
2023/04/19 03:36:09;;;;;;;10.85;7.45;;;11.60;99.90;;;;;;4137257;28;20496;-63
2023/04/19 03:38:09;;;;;;;10.00;7.47;;;11.60;99.90;;;;;;4142465;28;20038;-63
2023/04/19 03:40:10;;;;;;;14.13;7.32;;;11.60;99.90;;;;;;4143312;28;20058;-64
2023/04/19 03:42:11;;;;;;;8.80;6.50;;;11.60;99.90;;;;;;4141931;28;20030;-63
2023/04/19 03:44:11;;;;;;;7.72;6.25;;;11.60;99.90;;;;;;4138942;28;20041;-63
2023/04/19 03:46:12;;;;;;;9.95;7.18;;;11.70;99.90;;;;;;4133023;28;20105;-63
2023/04/19 03:48:12;;;;;;;10.65;6.72;;;11.70;99.90;;;;;;4142668;28;20037;-63
2023/04/19 03:50:13;;;;;;;9.27;6.32;;;11.70;99.90;;;;;;4138466;28;20042;-63
2023/04/19 03:52:14;;;;;;;12.00;7.30;;;11.70;99.90;;;;;;4141778;28;20105;-63
2023/04/19 03:54:15;;;;;;;10.15;6.28;;;11.70;99.90;;;;;;4144081;28;20496;-63
2023/04/19 03:56:15;;;;;;;8.38;6.03;;;11.60;99.90;;;;;;4141545;28;20513;-63
2023/04/19 03:58:17;;;;;;;9.43;6.22;;;11.60;99.90;;;;;;4138928;28;20030;-64
2023/04/19 04:00:17;;;;;;;8.75;6.20;;;11.70;99.90;;;;;;4140522;28;20488;-63
2023/04/19 04:02:18;;;;;;;7.72;6.03;;;11.70;99.90;;;;;;4135211;28;20042;-63
2023/04/19 04:04:18;;;;;;;8.27;5.50;;;11.70;99.90;;;;;;4144932;28;20031;-63
2023/04/19 04:06:19;;;;;;;8.65;5.45;;;11.80;99.90;;;;;;4142555;28;20026;-63
2023/04/19 04:08:19;;;;;;;8.35;5.55;;;11.70;99.90;;;;;;4143167;28;20026;-63
2023/04/19 04:10:20;;;;;;;8.73;5.95;;;11.80;99.90;;;;;;4145071;28;20489;-62
2023/04/19 04:12:21;;;;;;;9.57;6.10;;;11.70;99.90;;;;;;4134502;28;20037;-63
2023/04/19 04:14:23;;;;;;;9.32;6.18;;;11.70;99.90;;;;;;4139821;28;20042;-62
2023/04/19 04:16:23;;;;;;;9.85;7.18;;;11.70;99.90;;;;;;4142269;28;20038;-63
2023/04/19 04:18:25;;;;;;;9.38;6.13;;;11.50;99.90;;;;;;4142400;28;20426;-63
2023/04/19 04:20:26;;;;;;;9.55;6.35;;;11.50;99.90;;;;;;4139624;28;20042;-63
2023/04/19 04:22:27;;;;;;;9.93;5.97;;;11.40;99.90;;;;;;4139194;28;20037;-63
2023/04/19 04:24:28;;;;;;;9.18;6.10;;;11.40;99.90;;;;;;4143717;28;20057;-63
2023/04/19 04:26:32;;;;;;;8.88;5.90;;;11.40;99.90;;;;;;4140721;28;20370;-63
2023/04/19 04:28:33;;;;;;;8.50;5.80;;;11.20;99.90;;;;;;4144386;28;20038;-62
2023/04/19 04:30:34;;;;;;;11.05;6.15;;;11.20;99.90;;;;;;4137531;28;20453;-62
2023/04/19 04:32:39;;;;;;;9.95;5.90;;;11.10;99.90;;;;;;4136776;28;20042;-63
2023/04/19 04:34:41;;;;;;;8.45;5.63;;;11.00;99.90;;;;;;4133964;28;20109;-62
2023/04/19 04:36:42;;;;;;;9.70;5.70;;;11.00;99.90;;;;;;4138218;28;20034;-63
2023/04/19 04:38:43;;;;;;;8.65;5.72;;;10.90;99.90;;;;;;4142194;28;20041;-62
2023/04/19 04:40:49;;;;;;;9.05;5.68;;;10.80;99.90;;;;;;4139845;28;20500;-63
2023/04/19 04:42:51;;;;;;;6.63;4.72;;;10.70;99.90;;;;;;4138884;28;20103;-63
2023/04/19 04:44:56;;;;;;;7.57;5.15;;;10.70;99.90;;;;;;4144078;28;20232;-62
2023/04/19 04:46:57;;;;;;;10.02;5.75;;;10.60;99.90;;;;;;4137469;28;20473;-63
2023/04/19 04:48:57;;;;;;;9.02;6.03;;;10.40;99.90;;;;;;4142406;28;20044;-63
2023/04/19 04:50:58;;;;;;;9.30;5.90;;;10.30;99.90;;;;;;4141854;28;20037;-63
2023/04/19 04:52:58;;;;;;;10.85;5.85;;;10.20;99.90;;;;;;4144622;28;20037;-63
2023/04/19 04:54:59;;;;;;;13.13;5.82;;;10.10;99.90;;;;;;4140182;28;20044;-63
2023/04/19 04:57:00;;;;;;;8.30;5.93;;;10.00;99.90;;;;;;4144834;28;20521;-62
2023/04/19 04:59:00;;;;;;;8.15;5.20;;;10.00;99.90;;;;;;4138059;28;20026;-63
2023/04/19 05:01:01;;;;;;;9.75;6.03;;;9.90;99.90;;;;;;4137936;28;20441;-62
2023/04/19 05:03:01;;;;;;;9.55;5.50;;;9.90;99.90;;;;;;4138021;28;20030;-63
2023/04/19 05:05:02;;;;;;;9.38;5.78;;;9.90;99.90;;;;;;4137673;28;20041;-63
2023/04/19 05:07:03;;;;;;;8.82;5.68;;;9.90;99.90;;;;;;4136645;28;20053;-63
2023/04/19 05:09:03;;;;;;;11.63;5.90;;;9.90;99.90;;;;;;4143467;28;20065;-62
2023/04/19 05:11:04;;;;;;;8.65;5.53;;;9.80;99.90;;;;;;4141332;28;20116;-63
2023/04/19 05:13:05;;;;;;;8.02;5.25;;;9.80;99.90;;;;;;4136477;28;20041;-63
2023/04/19 05:15:06;;;;;;;9.95;5.22;;;9.80;99.90;;;;;;4139467;28;20060;-66
2023/04/19 05:17:06;;;;;;;7.38;5.13;;;9.80;99.90;;;;;;4136268;28;20088;-63
2023/04/19 05:19:07;;;;;;;8.00;5.35;;;9.80;99.90;;;;;;4144330;28;20053;-63
2023/04/19 05:21:09;;;;;;;10.18;5.60;;;9.80;99.90;;;;;;4147090;28;20500;-63
2023/04/19 05:23:10;;;;;;;8.97;6.00;;;9.80;99.90;;;;;;4138157;28;20042;-63
2023/04/19 05:25:10;;;;;;;10.35;5.90;;;9.80;99.90;;;;;;4140935;28;20356;-63
2023/04/19 05:27:11;;;;;;;11.15;5.43;;;9.80;99.90;;;;;;4141537;28;20033;-62
2023/04/19 05:29:12;;;;;;;8.25;5.93;;;9.80;99.90;;;;;;4136765;28;20046;-63
2023/04/19 05:31:13;;;;;;;12.98;6.30;;;9.80;99.90;;;;;;4141906;28;20037;-62
2023/04/19 05:33:13;;;;;;;9.23;5.97;;;9.80;99.90;;;;;;4130857;28;20076;-62
2023/04/19 05:35:14;;;;;;;8.45;5.57;;;9.90;99.90;;;;;;4137942;28;20022;-62
2023/04/19 05:37:15;;;;;;;10.15;6.13;;;9.90;99.90;;;;;;4139387;28;20565;-62
2023/04/19 05:39:16;;;;;;;9.50;5.55;;;9.90;99.90;;;;;;4142881;28;20401;-62
2023/04/19 05:41:16;;;;;;;10.98;5.85;;;9.90;99.90;;;;;;4138953;28;20100;-62
2023/04/19 05:43:17;;;;;;;9.68;6.00;;;9.90;99.90;;;;;;4132169;28;20026;-63
2023/04/19 05:45:17;;;;;;;9.15;5.70;;;9.90;99.90;;;;;;4134950;28;20151;-62
2023/04/19 05:47:18;;;;;;;9.48;5.80;;;10.00;99.90;;;;;;4140091;28;20042;-64
2023/04/19 05:49:19;;;;;;;10.05;5.88;;;10.00;99.90;;;;;;4138236;28;20112;-64
2023/04/19 05:51:19;;;;;;;8.43;5.55;;;10.00;99.90;;;;;;4138124;28;20376;-62
2023/04/19 05:53:20;;;;;;;11.30;5.93;;;10.00;99.90;;;;;;4133984;28;20097;-66
2023/04/19 05:55:20;;;;;;;11.13;6.55;;;10.10;99.90;;;;;;4133744;28;20081;-63
2023/04/19 05:57:21;;;;;;;10.45;6.22;;;10.10;99.90;;;;;;4140329;28;20026;-63
2023/04/19 05:59:21;;;;;;;7.65;5.22;;;10.10;99.90;;;;;;4141862;28;20033;-62
2023/04/19 06:01:22;;;;;;;9.43;6.18;;;10.20;99.90;;;;;;4142424;28;20121;-67
2023/04/19 06:03:23;;;;;;;11.15;6.38;;;10.20;99.90;;;;;;4140490;28;20384;-67
2023/04/19 06:05:24;;;;;;;8.90;5.90;;;10.20;99.90;;;;;;4143930;28;20101;-66
2023/04/19 06:07:24;;;;;;;9.73;6.03;;;10.20;99.90;;;;;;4140655;28;20489;-67
2023/04/19 06:09:25;;;;;;;10.10;5.80;;;10.20;99.90;;;;;;4144606;28;20101;-67
2023/04/19 06:11:25;;;;;;;10.77;6.05;;;10.30;99.90;;;;;;4144185;28;20022;-66
2023/04/19 06:13:26;;;;;;;10.50;6.05;;;10.30;99.90;;;;;;4142254;28;20029;-67
2023/04/19 06:15:27;;;;;;;8.32;5.80;;;10.40;99.90;;;;;;4140083;28;20093;-66
2023/04/19 06:17:27;;;;;;;9.90;5.50;;;10.40;99.90;;;;;;4144184;28;20048;-67
2023/04/19 06:19:28;;;;;;;9.07;6.05;;;10.50;99.90;;;;;;4144553;28;20503;-67
2023/04/19 06:21:31;;;;;;;9.73;5.97;;;10.40;99.90;;;;;;4144396;28;20034;-67
2023/04/19 06:23:32;;;;;;;9.18;5.75;;;10.40;99.90;;;;;;4141846;28;20025;-66
2023/04/19 06:25:33;;;;;;;11.32;6.20;;;10.50;99.90;;;;;;4144166;28;20041;-67
2023/04/19 06:27:33;;;;;;;8.63;5.85;;;10.60;99.90;;;;;;4144428;28;20451;-67
2023/04/19 06:29:34;;;;;;;9.80;5.93;;;10.70;99.90;;;;;;4142203;28;20044;-66
2023/04/19 06:31:34;;;;;;;11.43;6.18;;;10.60;99.90;;;;;;4138540;28;20034;-66
2023/04/19 06:33:35;;;;;;;7.93;5.18;;;10.70;99.90;;;;;;4140934;28;20125;-67
2023/04/19 06:35:35;;;;;;;9.98;5.85;;;10.80;99.90;;;;;;4142906;28;20021;-66
2023/04/19 06:37:36;;;;;;;10.00;5.28;;;10.80;99.90;;;;;;4141805;28;20447;-67
2023/04/19 06:39:36;;;;;;;9.98;5.80;;;10.70;99.90;;;;;;4142551;28;20042;-66
2023/04/19 06:41:37;;;;;;;9.45;5.05;;;10.80;99.90;;;;;;4143747;28;20026;-67
2023/04/19 06:43:39;;;;;;;11.77;5.40;;;11.00;99.90;;;;;;4144819;28;20029;-66
2023/04/19 06:45:40;;;;;;;9.05;5.25;;;11.30;99.90;;;;;;4143475;28;20120;-66
2023/04/19 06:47:40;;;;;;;9.13;5.78;;;11.40;99.90;;;;;;4144091;28;20038;-66
2023/04/19 06:49:41;;;;;;;8.98;5.35;;;11.60;99.90;;;;;;4141255;28;20358;-66
2023/04/19 06:51:42;;;;;;;13.13;5.47;;;11.80;99.90;;;;;;4138855;28;20034;-66
2023/04/19 06:53:43;;;;;;;11.27;5.35;;;11.90;99.90;;;;;;4143947;28;20088;-67
2023/04/19 06:55:44;;;;;;;7.75;5.10;;;12.10;99.90;;;;;;4143705;28;20033;-66
2023/04/19 06:57:45;;;;;;;7.25;3.92;;;12.50;99.90;;;;;;4143508;28;20041;-66
2023/04/19 06:59:45;;;;;;;9.00;4.90;;;12.90;99.90;;;;;;4148490;28;20038;-66
2023/04/19 07:01:46;;;;;;;6.90;4.55;;;13.00;99.90;;;;;;4146475;28;20038;-66
2023/04/19 07:03:47;;;;;;;9.20;5.03;;;13.30;99.90;;;;;;4146877;28;20045;-67
2023/04/19 07:05:47;;;;;;;10.18;4.93;;;13.40;99.90;;;;;;4147010;28;20045;-66
2023/04/19 07:07:49;;;;;;;8.68;4.95;;;13.50;99.90;;;;;;4148170;28;20061;-67
2023/04/19 07:09:49;;;;;;;9.25;5.00;;;13.70;99.90;;;;;;4147847;28;20034;-66
2023/04/19 07:11:50;;;;;;;8.07;4.80;;;13.70;99.60;;;;;;4148110;28;20040;-66
2023/04/19 07:13:50;;;;;;;7.43;4.45;;;13.70;99.90;;;;;;4148690;28;20054;-67
2023/04/19 07:15:51;;;;;;;5.95;4.00;;;14.00;99.90;;;;;;4148092;28;20104;-67
2023/04/19 07:17:52;;;;;;;9.40;4.72;;;13.90;99.70;;;;;;4148956;28;20030;-67
2023/04/19 07:19:52;;;;;;;11.27;5.05;;;14.10;99.90;;;;;;4148712;28;20030;-67
2023/04/19 07:21:53;;;;;;;9.57;4.70;;;14.10;98.60;;;;;;4148364;28;20030;-66
2023/04/19 07:23:53;;;;;;;7.80;4.43;;;14.10;97.60;;;;;;4148237;28;20030;-66
2023/04/19 07:25:54;;;;;;;5.35;3.80;;;14.10;98.10;;;;;;4147126;28;20030;-66
2023/04/19 07:27:55;;;;;;;5.50;3.80;;;14.20;97.60;;;;;;4147599;28;20067;-66
2023/04/19 07:29:55;;;;;;;6.18;4.22;;;14.30;98.50;;;;;;4147517;28;20092;-66
2023/04/19 07:31:58;;;;;;;7.13;4.65;;;14.40;99.90;;;;;;4146859;28;20439;-66
2023/04/19 07:33:59;;;;;;;;;;;14.60;99.00;;;;;;4146399;28;20026;-67
2023/04/19 07:35:59;;;;;;;8.30;4.57;;;14.50;96.80;;;;;;4141468;28;19953;-67
2023/04/19 07:38:00;;;;;;;7.78;4.40;;;14.50;96.10;;;;;;4145374;28;20036;-67
2023/04/19 07:40:01;;;;;;;8.18;3.83;;;14.30;96.80;;;;;;4147840;28;20093;-67
2023/04/19 07:42:01;;;;;;;5.43;3.33;;;14.50;98.40;;;;;;4148033;28;20030;-66
2023/04/19 07:44:02;;;;;;;4.63;3.53;;;14.80;98.80;;;;;;4148691;28;20567;-66
2023/04/19 07:46:09;;;;;;;7.55;4.00;;;14.80;99.80;;;;;;4148009;28;20234;-66
2023/04/19 07:48:10;;;;;;;6.00;3.63;;;14.90;96.40;;;;;;4148207;28;20520;-65
2023/04/19 07:50:11;;;;;;;6.47;4.13;;;15.10;98.70;;;;;;4147815;28;20044;-65
2023/04/19 07:52:12;;;;;;;5.35;3.75;;;15.20;95.20;;;;;;4147452;28;20030;-65
2023/04/19 07:54:15;;;;;;;6.20;3.90;;;15.40;99.90;;;;;;4148128;28;20037;-66
2023/04/19 07:56:15;;;;;;;5.68;3.58;;;15.30;94.90;;;;;;4147498;28;20082;-66
2023/04/19 07:58:16;;;;;;;7.15;3.97;;;15.40;95.60;;;;;;4147975;28;20034;-66
2023/04/19 08:00:17;;;;;;;6.70;3.80;;;15.20;94.70;;;;;;4147505;28;20042;-66
2023/04/19 08:02:18;;;;;;;5.90;3.85;;;15.20;95.40;;;;;;4148323;28;20416;-66
2023/04/19 08:04:21;;;;;;;7.22;4.25;;;15.10;95.40;;;;;;4148361;28;20046;-66
2023/04/19 08:06:22;;;;;;;7.22;3.85;;;15.00;95.30;;;;;;4143612;28;20088;-67
2023/04/19 08:08:23;;;;;;;8.60;4.07;;;15.10;94.60;;;;;;4147532;28;20034;-66
2023/04/19 08:10:25;;;;;;;5.53;3.78;;;14.80;93.50;;;;;;4147668;28;20030;-66
2023/04/19 08:12:26;;;;;;;7.65;4.43;;;14.70;94.80;;;;;;4145247;28;21745;-66
2023/04/19 08:14:26;;;;;;;8.27;4.60;;;14.60;95.30;;;;;;4150641;28;20493;-65
2023/04/19 08:16:28;;;;;;;7.15;4.18;;;14.50;93.20;;;;;;4143284;28;20484;-66
2023/04/19 08:18:29;;;;;;;6.43;3.63;;;14.50;93.20;;;;;;4144896;28;20038;-68
2023/04/19 08:20:31;;;;;;;5.88;3.53;;;14.60;95.40;;;;;;4140424;28;20050;-65
2023/04/19 08:22:31;;;;;;;9.38;4.00;;;14.70;93.30;;;;;;4143497;28;20060;-65
2023/04/19 08:24:32;;;;;;;10.93;3.88;;;14.60;91.40;;;;;;4139257;28;20037;-65
2023/04/19 08:26:32;;;;;;;7.55;3.85;;;14.60;92.20;;;;;;4144836;28;20114;-66
2023/04/19 08:28:33;;;;;;;9.15;3.63;;;14.80;92.40;;;;;;4138330;28;20038;-65
2023/04/19 08:30:34;;;;;;;5.88;3.60;;;14.60;90.80;;;;;;4139452;28;20033;-66
2023/04/19 08:32:35;;;;;;;5.88;3.33;;;14.50;91.30;;;;;;4140092;28;20058;-66
2023/04/19 08:34:36;;;;;;;9.63;3.90;;;14.50;90.00;;;;;;4144581;28;20034;-66
2023/04/19 08:36:36;;;;;;;7.50;3.38;;;14.40;90.70;;;;;;4146941;28;20033;-66
2023/04/19 08:38:37;;;;;;;9.75;3.65;;;14.40;92.10;;;;;;4137582;28;20030;-66
2023/04/19 08:40:44;;;;;;;5.85;3.25;;;14.20;90.50;;;;;;4143571;28;20046;-65
2023/04/19 08:42:45;;;;;;;7.63;3.35;;;14.20;91.70;;;;;;4147379;28;20120;-66
2023/04/19 08:44:46;;;;;;;7.85;3.22;;;14.50;93.30;;;;;;4139176;28;20506;-66
2023/04/19 08:46:49;;;;;;;6.32;3.50;;;14.50;91.90;;;;;;4144579;28;20050;-66
2023/04/19 08:48:50;;;;;;;6.05;3.28;;;14.50;90.60;;;;;;4138342;28;20042;-66
2023/04/19 08:50:50;;;;;;;5.10;2.80;;;14.40;90.40;;;;;;4146778;28;20049;-66
2023/04/19 08:52:51;;;;;;;5.20;2.97;;;14.50;90.70;;;;;;4138606;28;20037;-66
2023/04/19 08:54:54;;;;;;;4.13;2.72;;;14.60;90.10;;;;;;4146398;28;20112;-66
2023/04/19 08:56:57;;;;;;;4.07;2.53;;;14.70;91.50;;;;;;4144113;28;20030;-67
2023/04/19 08:58:58;;;;;;;4.57;2.90;;;14.80;91.20;;;;;;4142142;28;20030;-66
2023/04/19 09:00:59;;;;;;;3.40;2.55;;;15.00;95.50;;;;;;4137044;28;20477;-67
2023/04/19 09:03:00;;;;;;;4.93;3.15;;;14.90;90.30;;;;;;4140173;28;20046;-67
2023/04/19 09:05:00;;;;;;;6.78;3.20;;;14.80;87.70;;;;;;4139040;28;20026;-67
2023/04/19 09:07:01;;;;;;;6.50;3.05;;;14.50;88.10;;;;;;4139734;28;20030;-67
2023/04/19 09:09:29;;;;;;;5.72;2.75;;;14.50;86.90;;;;;;4135544;28;20058;-67
2023/04/19 09:11:39;;;;;;;4.85;2.70;;;14.30;84.30;;;;;;4145116;28;20045;-64
2023/04/19 09:13:42;;;;;;;15.27;3.50;;;14.10;88.00;;;;;;4134120;28;20042;-66
2023/04/19 09:15:43;;;;;;;3.85;2.38;;;13.70;83.30;;;;;;4141238;28;20045;-65
2023/04/19 09:18:01;;;;;;;6.50;2.92;;;14.00;90.50;;;;;;4146638;28;20038;-66
2023/04/19 09:20:04;;;;;;;4.65;2.75;;;14.10;88.90;;;;;;4140972;28;20542;-66
2023/04/19 09:22:14;;;;;;;;;;;13.90;86.50;;;;;;4137679;28;20032;-66
2023/04/19 09:24:15;;;;;;;4.22;2.50;;;13.90;90.00;;;;;;4142875;28;19916;-66
2023/04/19 09:26:15;;;;;;;5.78;2.97;;;14.00;89.20;;;;;;4141355;28;20041;-65
2023/04/19 09:28:16;;;;;;;8.52;3.10;;;13.90;85.50;;;;;;4141924;28;20045;-66
2023/04/19 09:30:24;;;;;;;5.25;2.30;;;13.90;90.20;;;;;;4134494;28;20065;-66
2023/04/19 09:32:25;;;;;;;4.85;2.83;;;13.90;90.50;;;;;;4147357;28;20034;-66
2023/04/19 09:34:28;;;;;;;4.75;2.85;;;14.00;86.50;;;;;;4146860;28;20116;-66
2023/04/19 09:36:30;;;;;;;4.47;2.90;;;14.10;91.00;;;;;;4145640;28;20038;-67
2023/04/19 09:38:47;;;;;;;4.78;2.38;;;14.20;90.60;;;;;;4139009;28;20030;-66
2023/04/19 09:40:49;;;;;;;4.28;2.20;;;14.30;90.30;;;;;;4138511;28;20497;-66
2023/04/19 09:42:49;;;;;;;3.47;2.40;;;14.50;90.50;;;;;;4141608;28;20433;-66
2023/04/19 09:44:58;;;;;;;4.32;1.90;;;14.70;90.10;;;;;;4145500;28;20041;-65
2023/04/19 09:46:58;;;;;;;7.13;2.42;;;14.80;90.20;;;;;;4143314;28;20034;-67
2023/04/19 09:49:22;;;;;;;5.18;2.22;;;14.60;83.00;;;;;;4143261;28;20041;-66
2023/04/19 09:51:38;;;;;;;5.38;2.10;;;14.50;83.80;;;;;;4130916;28;20041;-66
2023/04/19 09:53:40;;;;;;;3.97;2.22;;;14.50;80.80;;;;;;4145991;28;20112;-67
2023/04/19 09:55:41;;;;;;;6.72;2.17;;;14.50;84.40;;;;;;4145464;28;20504;-66
2023/04/19 09:57:42;;;;;;;5.57;2.20;;;14.60;80.80;;;;;;4146528;28;20549;-66
2023/04/19 09:59:42;;;;;;;3.97;1.95;;;14.40;78.20;;;;;;4146366;28;20085;-66
2023/04/19 10:01:46;;;;;;;3.85;1.77;;;14.30;79.00;;;;;;4142998;28;20118;-66
2023/04/19 10:03:48;;;;;;;3.47;2.00;;;14.40;82.20;;;;;;4128966;28;20035;-66
2023/04/19 10:05:49;;;;;;;3.28;2.17;;;14.50;81.90;;;;;;4130284;28;20417;-66
2023/04/19 10:07:51;;;;;;;3.85;1.98;;;14.30;78.40;;;;;;4140635;28;20034;-67
2023/04/19 10:09:55;;;;;;;3.97;1.33;;;14.40;81.70;;;;;;4145818;28;20555;-66
2023/04/19 10:11:58;;;;;;;4.03;1.45;;;14.40;76.60;;;;;;4145810;28;20030;-67
2023/04/19 10:14:03;;;;;;;6.22;2.00;;;14.20;72.30;;;;;;4146024;28;20346;-68
2023/04/19 10:16:03;;;;;;;5.25;1.67;;;14.00;69.40;;;;;;4145479;28;20373;-68
2023/04/19 10:18:05;;;;;;;3.90;1.80;;;13.90;73.60;;;;;;4146324;28;20033;-68
2023/04/19 10:20:09;;;;;;;3.72;1.77;;;13.80;76.60;;;;;;4145705;28;20042;-67
2023/04/19 10:22:11;;;;;;;4.47;2.38;;;13.80;71.40;;;;;;4127723;28;20046;-67
2023/04/19 10:24:13;;;;;;;6.97;2.10;;;13.80;71.30;;;;;;4145942;28;20036;-67
2023/04/19 10:26:14;;;;;;;5.47;2.22;;;13.70;74.00;;;;;;4145643;28;20029;-67